Frontier — WBB3569 — position and weather

sailwx.info

Track history (hours):
 
Tides and Currents Weather Stations Pressure Air Temp Water Temp Dewpoint Dewpoint Depression Visibility Wind Speed Wind Dir Waves Ship Positions

Frontier

Owner: NORDIC FISHERIES INC, NEW BEDFORD, MA. More information available from US FCC via Universal Licensing System and Coast Guard Vessel Documentation Center.

Last reported at 2015-May-04 13:33 UTC. Time now 2015-May-04 14:04 UTC.
Position N 40°51' W 067°45'.

Length 28 m.

Type: Fishing. MMSI: 367131750.

Date/timePositionNaut miles runAvg speedWind from/ knotsBaromVisibWave heightAir tempDewpointWater temp
2015-May-04 13:33N 40°51' W 067°45'  
2015-Apr-28 02:19N 41°15' W 071°12'7 9.3
2015-Apr-28 01:33N 41°09' W 071°17'9 9.3
2015-Apr-28 00:33N 41°01' W 071°24'2 2.4
2015-Apr-27 23:33N 40°60' W 071°27'3 2.5
2015-Apr-27 22:33N 40°58' W 071°25'0 0.5
2015-Apr-27 21:33N 40°58' W 071°25'1 0.7
2015-Apr-27 20:33N 40°58' W 071°26'6 5.5
2015-Apr-27 19:33N 40°55' W 071°32'4 3.9
2015-Apr-27 18:33N 40°54' W 071°37'1 0.8
2015-Apr-27 17:33N 40°54' W 071°36'1 0.6
2015-Apr-27 16:33N 40°54' W 071°36'0 0.3
2015-Apr-27 15:34N 40°54' W 071°35'1 0.8
2015-Apr-27 14:33N 40°54' W 071°34'1 0.6
2015-Apr-27 13:33N 40°54' W 071°35'1 1.4
2015-Apr-27 12:33N 40°53' W 071°36'4 4.2
2015-Apr-27 11:33N 40°54' W 071°31'4 3.9
2015-Apr-27 10:33N 40°54' W 071°36'2 1.6
2015-Apr-27 09:33N 40°54' W 071°34'0 0.0
2015-Apr-27 08:33N 40°54' W 071°34'1 1.3
2015-Apr-27 07:33N 40°55' W 071°32'1 1.1
2015-Apr-27 06:34N 40°54' W 071°34'3 2.8
2015-Apr-27 05:33N 40°53' W 071°37'1 0.9
2015-Apr-27 04:33N 40°52' W 071°38'0 0.2
2015-Apr-27 03:33N 40°53' W 071°38'2 1.6
2015-Apr-27 02:33N 40°53' W 071°36'1 0.6
2015-Apr-27 01:33N 40°52' W 071°36'0 0.4
2015-Apr-27 00:33N 40°52' W 071°37'0 0.2
2015-Apr-26 23:33N 40°52' W 071°37'1 1.0
2015-Apr-26 22:33N 40°52' W 071°36'0 0.4
2015-Apr-26 21:33N 40°52' W 071°36'1 0.5
2015-Apr-26 20:33N 40°53' W 071°36'0 0.3
2015-Apr-26 19:33N 40°53' W 071°36'1 0.7
2015-Apr-26 18:33N 40°52' W 071°36'1 1.4
2015-Apr-26 17:33N 40°53' W 071°38'2 2.1
2015-Apr-26 16:33N 40°52' W 071°35'1 1.5
2015-Apr-26 15:33N 40°53' W 071°37'1 1.0
2015-Apr-26 14:33N 40°53' W 071°36'0 0.3
2015-Apr-26 13:34N 40°53' W 071°36'1 0.9
2015-Apr-26 12:33N 40°53' W 071°35'1 0.5
2015-Apr-26 11:33N 40°53' W 071°34'1 1.5
2015-Apr-26 10:33N 40°52' W 071°36'0 0.4
2015-Apr-26 09:33N 40°52' W 071°36'1 1.0
2015-Apr-26 08:33N 40°52' W 071°38'1 0.7
2015-Apr-26 07:33N 40°52' W 071°37'1 0.6
2015-Apr-26 06:33N 40°52' W 071°36'1 1.3
2015-Apr-26 05:33N 40°53' W 071°34'0 0.1
2015-Apr-26 04:33N 40°53' W 071°34'1 1.0
2015-Apr-26 03:33N 40°52' W 071°35'1 0.9
2015-Apr-26 02:33N 40°51' W 071°36'1 0.9
2015-Apr-26 01:33N 40°52' W 071°37'1 1.0
2015-Apr-26 00:34N 40°53' W 071°37'0 0.3
2015-Apr-25 23:33N 40°52' W 071°37'2 1.8
2015-Apr-25 22:33N 40°53' W 071°34'8 8.1
2015-Apr-25 21:33N 41°00' W 071°32'8 8.0
2015-Apr-25 20:33N 41°08' W 071°32'9 8.6
2015-Apr-25 19:33N 41°13' W 071°23'9 8.8
2015-Apr-25 18:33N 41°19' W 071°14'10 8.7
2015-Apr-25 17:24N 41°25' W 071°03'  
Track history (hours):
 
Tides and Currents Weather Stations Pressure Air Temp Water Temp Dewpoint Dewpoint Depression Visibility Wind Speed Wind Dir Waves Ship Positions

Frontier

Owner: NORDIC FISHERIES INC, NEW BEDFORD, MA. More information available from US FCC via Universal Licensing System and Coast Guard Vessel Documentation Center.

Last reported at 2015-May-04 13:33 UTC. Time now 2015-May-04 14:04 UTC.
Position N 40°51' W 067°45'.

Length 28 m.

Type: Fishing. MMSI: 367131750.

Date/timePositionNaut miles runAvg speedWind from/ knotsBaromVisibWave heightAir tempDewpointWater temp
2015-May-04 13:33N 40°51' W 067°45'  
2015-Apr-28 02:19N 41°15' W 071°12'7 9.3
2015-Apr-28 01:33N 41°09' W 071°17'9 9.3
2015-Apr-28 00:33N 41°01' W 071°24'2 2.4
2015-Apr-27 23:33N 40°60' W 071°27'3 2.5
2015-Apr-27 22:33N 40°58' W 071°25'0 0.5
2015-Apr-27 21:33N 40°58' W 071°25'1 0.7
2015-Apr-27 20:33N 40°58' W 071°26'6 5.5
2015-Apr-27 19:33N 40°55' W 071°32'4 3.9
2015-Apr-27 18:33N 40°54' W 071°37'1 0.8
2015-Apr-27 17:33N 40°54' W 071°36'1 0.6
2015-Apr-27 16:33N 40°54' W 071°36'0 0.3
2015-Apr-27 15:34N 40°54' W 071°35'1 0.8
2015-Apr-27 14:33N 40°54' W 071°34'1 0.6
2015-Apr-27 13:33N 40°54' W 071°35'1 1.4
2015-Apr-27 12:33N 40°53' W 071°36'4 4.2
2015-Apr-27 11:33N 40°54' W 071°31'4 3.9
2015-Apr-27 10:33N 40°54' W 071°36'2 1.6
2015-Apr-27 09:33N 40°54' W 071°34'0 0.0
2015-Apr-27 08:33N 40°54' W 071°34'1 1.3
2015-Apr-27 07:33N 40°55' W 071°32'1 1.1
2015-Apr-27 06:34N 40°54' W 071°34'3 2.8
2015-Apr-27 05:33N 40°53' W 071°37'1 0.9
2015-Apr-27 04:33N 40°52' W 071°38'0 0.2
2015-Apr-27 03:33N 40°53' W 071°38'2 1.6
2015-Apr-27 02:33N 40°53' W 071°36'1 0.6
2015-Apr-27 01:33N 40°52' W 071°36'0 0.4
2015-Apr-27 00:33N 40°52' W 071°37'0 0.2
2015-Apr-26 23:33N 40°52' W 071°37'1 1.0
2015-Apr-26 22:33N 40°52' W 071°36'0 0.4
2015-Apr-26 21:33N 40°52' W 071°36'1 0.5
2015-Apr-26 20:33N 40°53' W 071°36'0 0.3
2015-Apr-26 19:33N 40°53' W 071°36'1 0.7
2015-Apr-26 18:33N 40°52' W 071°36'1 1.4
2015-Apr-26 17:33N 40°53' W 071°38'2 2.1
2015-Apr-26 16:33N 40°52' W 071°35'1 1.5
2015-Apr-26 15:33N 40°53' W 071°37'1 1.0
2015-Apr-26 14:33N 40°53' W 071°36'0 0.3
2015-Apr-26 13:34N 40°53' W 071°36'1 0.9
2015-Apr-26 12:33N 40°53' W 071°35'1 0.5
2015-Apr-26 11:33N 40°53' W 071°34'1 1.5
2015-Apr-26 10:33N 40°52' W 071°36'0 0.4
2015-Apr-26 09:33N 40°52' W 071°36'1 1.0
2015-Apr-26 08:33N 40°52' W 071°38'1 0.7
2015-Apr-26 07:33N 40°52' W 071°37'1 0.6
2015-Apr-26 06:33N 40°52' W 071°36'1 1.3
2015-Apr-26 05:33N 40°53' W 071°34'0 0.1
2015-Apr-26 04:33N 40°53' W 071°34'1 1.0
2015-Apr-26 03:33N 40°52' W 071°35'1 0.9
2015-Apr-26 02:33N 40°51' W 071°36'1 0.9
2015-Apr-26 01:33N 40°52' W 071°37'1 1.0
2015-Apr-26 00:34N 40°53' W 071°37'0 0.3
2015-Apr-25 23:33N 40°52' W 071°37'2 1.8
2015-Apr-25 22:33N 40°53' W 071°34'8 8.1
2015-Apr-25 21:33N 41°00' W 071°32'8 8.0
2015-Apr-25 20:33N 41°08' W 071°32'9 8.6
2015-Apr-25 19:33N 41°13' W 071°23'9 8.8
2015-Apr-25 18:33N 41°19' W 071°14'10 8.7
2015-Apr-25 17:24N 41°25' W 071°03'  

Dump ship's entire track history